createdAt,value
2023-06-08T00:02:47.151Z,10.07
2023-06-08T00:05:54.244Z,9.48
2023-06-08T00:09:00.983Z,6.18
2023-06-08T00:12:09.018Z,6.25
2023-06-08T00:15:16.887Z,4.55
2023-06-08T00:18:46.102Z,16.02
2023-06-08T00:21:54.645Z,9.80
2023-06-08T00:25:02.067Z,6.05
2023-06-08T00:28:13.597Z,10.05
2023-06-08T00:31:24.710Z,15.32
2023-06-08T00:34:32.184Z,10.45
2023-06-08T00:37:48.183Z,10.88
2023-06-08T00:40:53.427Z,6.50
2023-06-08T00:44:00.962Z,7.65
2023-06-08T00:48:00.062Z,5.60
2023-06-08T01:01:16.515Z,9.30
2023-06-08T01:05:30.737Z,15.85
2023-06-08T01:08:50.128Z,6.13
2023-06-08T01:11:57.490Z,6.07
2023-06-08T01:15:29.227Z,9.00
2023-06-08T01:18:42.302Z,11.02
2023-06-08T01:22:11.581Z,11.52
2023-06-08T01:30:39.601Z,8.63
2023-06-08T01:38:32.621Z,9.85
2023-06-08T01:51:50.606Z,9.30
2023-06-08T02:22:02.023Z,11.73
2023-06-08T02:26:19.599Z,9.95
2023-06-08T02:47:14.516Z,9.45
2023-06-08T02:50:20.490Z,18.90
2023-06-08T02:53:30.078Z,10.73
2023-06-08T02:56:37.088Z,26.95
2023-06-08T02:59:43.962Z,13.20
2023-06-08T03:02:48.900Z,13.40
2023-06-08T03:14:26.115Z,9.05
2023-06-08T03:17:43.562Z,10.20
2023-06-08T03:22:13.931Z,11.68
2023-06-08T03:25:34.014Z,9.88
2023-06-08T03:28:45.248Z,12.32
2023-06-08T03:31:52.816Z,8.55
2023-06-08T03:35:00.235Z,9.32
2023-06-08T03:38:12.867Z,8.00
2023-06-08T03:41:24.940Z,18.30
2023-06-08T03:44:29.404Z,12.60
2023-06-08T03:47:42.843Z,11.65
2023-06-08T03:50:54.102Z,12.52
2023-06-08T03:54:27.570Z,7.90
2023-06-08T03:57:45.203Z,11.73
2023-06-08T04:00:56.239Z,58.40
2023-06-08T04:04:04.174Z,13.50
2023-06-08T04:07:12.792Z,37.58
2023-06-08T04:10:28.015Z,12.18
2023-06-08T04:13:42.876Z,13.88
2023-06-08T04:16:51.724Z,8.50
2023-06-08T04:19:56.928Z,10.82
2023-06-08T04:23:11.163Z,8.82
2023-06-08T04:26:20.129Z,11.60
2023-06-08T04:29:32.358Z,10.32
2023-06-08T04:32:37.635Z,10.18
2023-06-08T04:35:45.922Z,15.50
2023-06-08T04:38:55.684Z,11.52
2023-06-08T04:42:06.212Z,11.38
2023-06-08T04:45:13.404Z,11.05
2023-06-08T04:48:23.150Z,16.02
2023-06-08T04:51:41.618Z,12.55
2023-06-08T04:54:54.971Z,9.88
2023-06-08T04:58:02.753Z,11.45
2023-06-08T05:01:10.665Z,13.88
2023-06-08T05:07:25.910Z,11.48
2023-06-08T05:10:32.558Z,10.35
2023-06-08T05:13:37.812Z,14.10
2023-06-08T05:16:45.556Z,17.45
2023-06-08T05:19:53.425Z,9.68
2023-06-08T05:23:01.210Z,8.52
2023-06-08T05:26:08.806Z,12.63
2023-06-08T05:29:15.997Z,12.77
2023-06-08T05:32:23.826Z,8.40
2023-06-08T05:35:31.864Z,12.00
2023-06-08T05:38:36.597Z,9.90
2023-06-08T05:41:46.034Z,12.25
2023-06-08T05:44:52.899Z,13.57
2023-06-08T05:47:59.910Z,8.70
2023-06-08T05:51:05.039Z,8.30
2023-06-08T05:57:17.033Z,16.13
2023-06-08T06:00:21.884Z,11.80
2023-06-08T06:03:32.075Z,11.10
2023-06-08T06:06:39.182Z,13.73
2023-06-08T06:09:48.714Z,15.88
2023-06-08T06:12:55.305Z,17.20
2023-06-08T06:16:05.758Z,16.38
2023-06-08T06:19:11.277Z,20.65
2023-06-08T06:22:21.498Z,14.30
2023-06-08T06:25:34.896Z,10.32
2023-06-08T06:28:54.444Z,13.45
2023-06-08T06:32:00.346Z,23.20
2023-06-08T06:35:12.474Z,21.25
2023-06-08T06:38:36.013Z,17.90
2023-06-08T06:42:28.957Z,16.20
2023-06-08T06:46:04.806Z,12.43
2023-06-08T06:49:14.127Z,13.32
2023-06-08T06:52:58.959Z,16.42
2023-06-08T07:00:03.076Z,25.33
2023-06-08T07:04:26.249Z,15.40
2023-06-08T07:11:18.851Z,24.42
2023-06-08T07:15:02.631Z,24.13
2023-06-08T07:18:15.529Z,17.40
2023-06-08T07:21:25.668Z,15.52
2023-06-08T07:25:58.007Z,18.55
2023-06-08T07:30:01.128Z,17.13
2023-06-08T07:38:14.966Z,17.15
2023-06-08T07:42:06.641Z,26.30
2023-06-08T07:45:52.660Z,20.45
2023-06-08T07:48:59.472Z,11.73
2023-06-08T07:52:04.109Z,15.23
2023-06-08T07:55:08.760Z,12.95
2023-06-08T07:58:13.178Z,14.65
2023-06-08T08:01:20.831Z,19.90
2023-06-08T08:04:25.545Z,12.00
2023-06-08T08:11:13.678Z,18.52
2023-06-08T08:14:31.723Z,16.88
2023-06-08T08:17:40.071Z,19.10
2023-06-08T08:20:50.650Z,31.05
2023-06-08T08:24:12.558Z,32.08
2023-06-08T08:27:20.895Z,15.02
2023-06-08T08:30:30.937Z,28.35
2023-06-08T08:33:35.775Z,18.17
2023-06-08T08:36:49.225Z,13.30
2023-06-08T08:39:54.390Z,37.50
2023-06-08T08:46:30.346Z,18.55
2023-06-08T08:49:45.768Z,35.55
2023-06-08T08:53:00.383Z,53.80
2023-06-08T09:00:15.993Z,29.00
2023-06-08T09:03:21.214Z,28.70
2023-06-08T09:06:35.917Z,33.05
2023-06-08T09:09:42.789Z,18.77
2023-06-08T09:13:01.002Z,23.10
2023-06-08T09:20:43.657Z,13.45
2023-06-08T09:50:21.533Z,22.55
2023-06-08T09:53:50.616Z,25.38
2023-06-08T09:57:09.000Z,23.67
2023-06-08T10:00:43.799Z,24.23
2023-06-08T10:14:28.249Z,25.35
2023-06-08T10:47:17.050Z,19.67
2023-06-08T10:50:33.676Z,17.13
2023-06-08T10:54:03.970Z,24.10
2023-06-08T10:57:16.222Z,35.78
2023-06-08T11:00:45.160Z,30.55
2023-06-08T11:03:51.105Z,34.50
2023-06-08T11:06:56.022Z,30.17
2023-06-08T11:10:05.286Z,25.08
2023-06-08T11:13:14.427Z,18.17
2023-06-08T11:16:24.811Z,16.77
2023-06-08T11:19:37.257Z,19.58
2023-06-08T11:22:47.282Z,12.38
2023-06-08T11:25:53.612Z,17.90
2023-06-08T11:29:03.709Z,19.52
2023-06-08T11:32:15.642Z,16.52
2023-06-08T11:35:21.698Z,22.52
2023-06-08T11:38:28.786Z,20.52
2023-06-08T11:41:34.530Z,16.63
2023-06-08T11:44:39.263Z,25.00
2023-06-08T11:47:58.761Z,20.75
2023-06-08T11:51:11.690Z,20.10
2023-06-08T11:54:19.669Z,16.55
2023-06-08T11:57:58.824Z,21.98
2023-06-08T12:01:12.225Z,19.38
2023-06-08T12:04:17.242Z,16.02
2023-06-08T12:07:21.941Z,18.20
2023-06-08T12:10:38.850Z,16.35
2023-06-08T12:13:45.456Z,16.50
2023-06-08T12:16:50.022Z,16.98
2023-06-08T12:19:57.164Z,17.95
2023-06-08T12:23:02.358Z,15.77
2023-06-08T12:26:07.162Z,16.67
2023-06-08T12:29:14.186Z,15.20
2023-06-08T12:32:31.729Z,13.17
2023-06-08T12:35:42.732Z,12.82
2023-06-08T12:38:50.138Z,14.90
2023-06-08T12:41:54.641Z,11.55
2023-06-08T12:44:59.528Z,17.10
2023-06-08T12:48:04.798Z,10.55
2023-06-08T12:51:10.218Z,11.40
2023-06-08T12:57:20.692Z,12.52
2023-06-08T13:00:25.292Z,10.63
2023-06-08T13:03:29.951Z,14.33
2023-06-08T13:06:34.800Z,10.43
2023-06-08T13:09:41.286Z,11.30
2023-06-08T13:12:45.941Z,13.68
2023-06-08T13:15:55.704Z,8.68
2023-06-08T13:19:00.749Z,8.82
2023-06-08T13:22:06.905Z,8.68
2023-06-08T13:25:11.810Z,5.78
2023-06-08T13:28:16.663Z,7.00
2023-06-08T13:31:21.277Z,9.07
2023-06-08T13:34:35.911Z,7.90
2023-06-08T13:37:40.364Z,5.32
2023-06-08T13:40:45.399Z,9.18
2023-06-08T13:43:50.316Z,6.47
2023-06-08T13:46:57.169Z,7.63
2023-06-08T13:50:01.666Z,6.87
2023-06-08T13:53:07.782Z,5.25
2023-06-08T13:56:12.373Z,6.35
2023-06-08T13:59:19.961Z,8.57
2023-06-08T14:02:26.760Z,5.65
2023-06-08T14:05:31.527Z,8.52
2023-06-08T14:08:36.000Z,5.65
2023-06-08T14:11:43.324Z,9.57
2023-06-08T14:14:51.886Z,7.65
2023-06-08T14:17:58.313Z,7.18
2023-06-08T14:21:02.934Z,12.05
2023-06-08T14:24:13.532Z,4.15
2023-06-08T14:27:18.480Z,5.28
2023-06-08T14:30:23.509Z,7.82
2023-06-08T14:33:27.725Z,7.80
2023-06-08T14:36:34.668Z,7.45
2023-06-08T14:39:39.066Z,5.78
2023-06-08T14:42:46.670Z,11.90
2023-06-08T14:45:54.442Z,7.18
2023-06-08T14:48:59.080Z,7.78
2023-06-08T14:52:05.089Z,4.57
2023-06-08T14:55:17.329Z,4.50
2023-06-08T14:58:22.508Z,4.93
2023-06-08T15:01:29.121Z,4.78
2023-06-08T15:04:33.519Z,5.73
2023-06-08T15:07:40.364Z,3.80
2023-06-08T15:10:44.651Z,6.72
2023-06-08T15:13:49.153Z,13.83
2023-06-08T15:16:55.809Z,7.75
2023-06-08T15:20:10.534Z,5.65
2023-06-08T15:23:18.597Z,4.97
2023-06-08T15:26:24.225Z,6.03
2023-06-08T15:29:28.889Z,4.72
2023-06-08T15:32:35.682Z,5.35
2023-06-08T15:35:43.100Z,5.82
2023-06-08T15:39:20.841Z,6.03
2023-06-08T15:42:25.398Z,5.50
2023-06-08T15:45:29.903Z,4.50
2023-06-08T15:48:36.654Z,5.50
2023-06-08T15:51:46.935Z,6.22
2023-06-08T15:54:51.471Z,4.35
2023-06-08T15:57:57.723Z,6.80
2023-06-08T16:01:02.104Z,6.85
2023-06-08T16:04:09.627Z,4.43
2023-06-08T16:07:14.132Z,4.93
2023-06-08T16:10:21.821Z,8.98
2023-06-08T16:13:28.935Z,5.00
2023-06-08T16:16:33.663Z,8.05
2023-06-08T16:19:37.893Z,4.88
2023-06-08T16:22:42.284Z,7.13
2023-06-08T16:25:48.998Z,6.07
2023-06-08T16:28:56.557Z,5.20
2023-06-08T16:32:02.534Z,7.57
2023-06-08T16:35:07.629Z,4.80
2023-06-08T16:38:12.366Z,6.15
2023-06-08T16:41:17.033Z,6.32
2023-06-08T16:44:25.912Z,5.43
2023-06-08T16:47:30.498Z,9.40
2023-06-08T16:50:35.242Z,4.73
2023-06-08T16:53:39.665Z,4.93
2023-06-08T16:56:47.194Z,4.68
2023-06-08T16:59:51.889Z,5.30
2023-06-08T17:02:59.709Z,4.57
2023-06-08T17:06:11.788Z,5.18
2023-06-08T17:09:16.444Z,5.13
2023-06-08T17:12:21.302Z,3.63
2023-06-08T17:15:28.515Z,6.43
2023-06-08T17:18:36.025Z,4.45
2023-06-08T17:21:48.199Z,4.13
2023-06-08T17:24:52.609Z,6.82
2023-06-08T17:27:57.132Z,4.93
2023-06-08T17:31:01.862Z,4.43
2023-06-08T17:34:06.576Z,5.60
2023-06-08T17:37:11.017Z,5.83
2023-06-08T17:40:15.692Z,5.88
2023-06-08T17:43:22.452Z,5.53
2023-06-08T17:46:27.118Z,5.15
2023-06-08T17:49:32.041Z,5.43
2023-06-08T17:52:39.292Z,6.10
2023-06-08T17:55:43.684Z,6.10
2023-06-08T17:58:51.397Z,5.63
2023-06-08T18:01:55.956Z,6.53
2023-06-08T18:05:00.345Z,4.87
2023-06-08T18:08:07.816Z,4.95
2023-06-08T18:11:12.325Z,5.38
2023-06-08T18:14:19.578Z,5.73
2023-06-08T18:17:26.292Z,6.38
2023-06-08T18:20:30.734Z,6.47
2023-06-08T18:23:38.060Z,4.35
2023-06-08T18:26:42.776Z,4.13
2023-06-08T18:29:47.313Z,6.28
2023-06-08T18:32:54.236Z,5.93
2023-06-08T18:36:02.370Z,5.32
2023-06-08T18:39:09.843Z,4.68
2023-06-08T18:42:14.441Z,4.95
2023-06-08T18:45:19.152Z,5.65
2023-06-08T18:48:34.687Z,4.70
2023-06-08T18:51:39.278Z,5.28
2023-06-08T18:54:43.835Z,10.63
2023-06-08T18:57:49.668Z,5.03
2023-06-08T19:00:56.860Z,16.92
2023-06-08T19:04:03.913Z,5.63
2023-06-08T19:07:11.730Z,7.90
2023-06-08T19:10:18.461Z,5.22
2023-06-08T19:13:39.791Z,7.75
2023-06-08T19:16:52.305Z,6.47
2023-06-08T19:19:57.104Z,5.72
2023-06-08T19:23:16.062Z,7.55
2023-06-08T19:26:20.641Z,9.35
2023-06-08T19:29:25.200Z,6.97
2023-06-08T19:32:39.028Z,9.45
2023-06-08T19:35:43.614Z,8.50
2023-06-08T19:38:57.155Z,9.85
2023-06-08T19:42:13.175Z,9.82
2023-06-08T19:45:17.783Z,7.55
2023-06-08T19:48:22.197Z,6.20
2023-06-08T20:00:08.927Z,6.75
2023-06-08T20:03:31.441Z,6.15
2023-06-08T20:06:41.672Z,4.65
2023-06-08T20:09:47.397Z,6.55
2023-06-08T20:13:00.659Z,5.20
2023-06-08T20:16:08.419Z,6.78
2023-06-08T20:19:14.073Z,8.35
2023-06-08T20:22:18.460Z,5.50
2023-06-08T20:25:24.229Z,13.57
2023-06-08T20:28:28.747Z,7.88
2023-06-08T20:31:35.371Z,14.90
2023-06-08T20:34:42.508Z,7.13
2023-06-08T20:37:47.519Z,6.82
2023-06-08T20:40:54.465Z,5.65
2023-06-08T20:43:58.937Z,6.55
2023-06-08T20:47:12.113Z,9.07
2023-06-08T20:50:23.739Z,5.80
2023-06-08T20:53:30.594Z,7.07
2023-06-08T20:56:40.695Z,6.20
2023-06-08T21:01:01.380Z,10.48
2023-06-08T21:05:27.181Z,7.05
2023-06-08T21:13:03.213Z,8.40
2023-06-08T21:16:23.946Z,13.68
2023-06-08T21:19:36.182Z,6.90
2023-06-08T21:22:50.822Z,8.38
2023-06-08T21:26:12.753Z,11.20
2023-06-08T21:29:24.776Z,19.70
2023-06-08T21:32:38.156Z,9.63
2023-06-08T21:36:05.778Z,11.85
2023-06-08T21:42:40.235Z,18.45
2023-06-08T21:50:19.394Z,6.22
2023-06-08T22:01:32.129Z,18.38
2023-06-08T22:04:41.975Z,8.20
2023-06-08T22:07:49.206Z,7.80
2023-06-08T22:10:58.340Z,10.68
2023-06-08T22:14:04.779Z,11.70
2023-06-08T22:17:33.005Z,10.38
2023-06-08T22:25:58.843Z,10.02
2023-06-08T22:35:00.571Z,10.98
2023-06-08T22:41:38.320Z,6.00
2023-06-08T22:44:42.948Z,6.75
2023-06-08T22:47:54.916Z,11.38
2023-06-08T22:51:04.625Z,8.40
2023-06-08T22:54:10.792Z,12.73
2023-06-08T22:57:23.153Z,4.45
2023-06-08T23:00:28.515Z,11.73
2023-06-08T23:06:47.898Z,13.18
2023-06-08T23:09:58.099Z,13.18
2023-06-08T23:13:07.390Z,23.42
2023-06-08T23:16:18.378Z,13.55
2023-06-08T23:19:36.291Z,9.00
2023-06-08T23:22:46.048Z,7.95
2023-06-08T23:26:08.767Z,14.73
2023-06-08T23:29:16.386Z,12.90
2023-06-08T23:32:24.151Z,9.75
2023-06-08T23:35:33.371Z,8.38
2023-06-08T23:38:37.961Z,5.45
2023-06-08T23:41:54.014Z,9.43
2023-06-08T23:45:00.867Z,6.60
2023-06-08T23:48:26.340Z,7.35
2023-06-08T23:51:30.850Z,9.85
2023-06-08T23:54:38.640Z,8.00
2023-06-08T23:57:46.183Z,13.80
